sensor_id;sensor_type;location;lat;lon;timestamp;temperature;humidity
4697;DHT22;2362;50.780;0.292;2022-10-28T00:01:28;16.00;99.90
4697;DHT22;2362;50.780;0.292;2022-10-28T00:03:56;16.00;99.90
4697;DHT22;2362;50.780;0.292;2022-10-28T00:08:50;15.90;99.90
4697;DHT22;2362;50.780;0.292;2022-10-28T00:11:21;16.00;99.90
4697;DHT22;2362;50.780;0.292;2022-10-28T00:13:48;16.00;99.90
4697;DHT22;2362;50.780;0.292;2022-10-28T00:16:34;16.00;99.90
4697;DHT22;2362;50.780;0.292;2022-10-28T00:19:03;16.00;99.90
4697;DHT22;2362;50.780;0.292;2022-10-28T00:21:54;15.90;99.90
4697;DHT22;2362;50.780;0.292;2022-10-28T00:24:45;15.90;99.90
4697;DHT22;2362;50.780;0.292;2022-10-28T00:27:36;15.90;99.90
4697;DHT22;2362;50.780;0.292;2022-10-28T00:30:02;15.90;99.90
4697;DHT22;2362;50.780;0.292;2022-10-28T00:32:29;15.90;99.90
4697;DHT22;2362;50.780;0.292;2022-10-28T00:34:55;15.80;99.90
4697;DHT22;2362;50.780;0.292;2022-10-28T00:37:21;15.80;99.90
4697;DHT22;2362;50.780;0.292;2022-10-28T00:39:47;15.70;99.90
4697;DHT22;2362;50.780;0.292;2022-10-28T00:42:17;15.70;99.90
4697;DHT22;2362;50.780;0.292;2022-10-28T00:47:44;15.90;99.90
4697;DHT22;2362;50.780;0.292;2022-10-28T00:53:22;15.90;99.90
4697;DHT22;2362;50.780;0.292;2022-10-28T00:55:50;15.90;99.90
4697;DHT22;2362;50.780;0.292;2022-10-28T00:58:18;15.80;99.90
4697;DHT22;2362;50.780;0.292;2022-10-28T01:00:44;15.80;99.90
4697;DHT22;2362;50.780;0.292;2022-10-28T01:03:10;15.70;99.90
4697;DHT22;2362;50.780;0.292;2022-10-28T01:05:40;15.80;99.90
4697;DHT22;2362;50.780;0.292;2022-10-28T01:08:06;15.70;99.90
4697;DHT22;2362;50.780;0.292;2022-10-28T01:16:03;15.70;99.90
4697;DHT22;2362;50.780;0.292;2022-10-28T01:18:49;15.70;99.90
4697;DHT22;2362;50.780;0.292;2022-10-28T01:21:52;15.90;99.90
4697;DHT22;2362;50.780;0.292;2022-10-28T01:24:48;15.80;99.90
4697;DHT22;2362;50.780;0.292;2022-10-28T01:46:10;15.90;99.90
4697;DHT22;2362;50.780;0.292;2022-10-28T01:48:44;15.90;99.90
4697;DHT22;2362;50.780;0.292;2022-10-28T01:51:34;15.80;99.90
4697;DHT22;2362;50.780;0.292;2022-10-28T01:54:03;15.80;99.90
4697;DHT22;2362;50.780;0.292;2022-10-28T01:56:55;15.80;99.90
4697;DHT22;2362;50.780;0.292;2022-10-28T01:59:26;15.80;99.90
4697;DHT22;2362;50.780;0.292;2022-10-28T02:01:53;15.70;99.90
4697;DHT22;2362;50.780;0.292;2022-10-28T02:04:19;15.60;99.90
4697;DHT22;2362;50.780;0.292;2022-10-28T02:06:49;15.60;99.90
4697;DHT22;2362;50.780;0.292;2022-10-28T02:09:34;15.70;99.90
4697;DHT22;2362;50.780;0.292;2022-10-28T02:28:46;15.60;99.90
4697;DHT22;2362;50.780;0.292;2022-10-28T02:31:28;15.70;99.90
4697;DHT22;2362;50.780;0.292;2022-10-28T02:33:59;15.70;99.90
4697;DHT22;2362;50.780;0.292;2022-10-28T02:36:29;15.70;99.90
4697;DHT22;2362;50.780;0.292;2022-10-28T02:38:57;15.70;99.90
4697;DHT22;2362;50.780;0.292;2022-10-28T02:44:08;15.70;99.90
4697;DHT22;2362;50.780;0.292;2022-10-28T02:46:38;15.70;99.90
4697;DHT22;2362;50.780;0.292;2022-10-28T02:49:10;15.80;99.90
4697;DHT22;2362;50.780;0.292;2022-10-28T02:51:40;15.80;99.90
4697;DHT22;2362;50.780;0.292;2022-10-28T02:54:19;15.70;99.90
4697;DHT22;2362;50.780;0.292;2022-10-28T02:56:54;15.70;99.90
4697;DHT22;2362;50.780;0.292;2022-10-28T02:59:23;15.80;99.90
4697;DHT22;2362;50.780;0.292;2022-10-28T03:01:50;15.80;99.90
4697;DHT22;2362;50.780;0.292;2022-10-28T03:04:16;15.80;99.90
4697;DHT22;2362;50.780;0.292;2022-10-28T03:06:42;15.70;99.90
4697;DHT22;2362;50.780;0.292;2022-10-28T03:09:07;15.80;99.90
4697;DHT22;2362;50.780;0.292;2022-10-28T03:11:33;15.80;99.90
4697;DHT22;2362;50.780;0.292;2022-10-28T03:13:59;15.80;99.90
4697;DHT22;2362;50.780;0.292;2022-10-28T03:16:25;15.80;99.90
4697;DHT22;2362;50.780;0.292;2022-10-28T03:18:51;15.90;99.90
4697;DHT22;2362;50.780;0.292;2022-10-28T03:21:17;15.80;99.90
4697;DHT22;2362;50.780;0.292;2022-10-28T03:23:43;15.70;99.90
4697;DHT22;2362;50.780;0.292;2022-10-28T03:26:09;15.70;99.90
4697;DHT22;2362;50.780;0.292;2022-10-28T03:28:35;15.80;99.90
4697;DHT22;2362;50.780;0.292;2022-10-28T03:31:00;15.80;99.90
4697;DHT22;2362;50.780;0.292;2022-10-28T03:33:26;15.80;99.90
4697;DHT22;2362;50.780;0.292;2022-10-28T03:35:52;15.70;99.90
4697;DHT22;2362;50.780;0.292;2022-10-28T03:38:18;15.80;99.90
4697;DHT22;2362;50.780;0.292;2022-10-28T03:40:47;15.80;99.90
4697;DHT22;2362;50.780;0.292;2022-10-28T03:43:13;15.90;99.90
4697;DHT22;2362;50.780;0.292;2022-10-28T03:45:43;15.80;99.90
4697;DHT22;2362;50.780;0.292;2022-10-28T03:48:09;15.80;99.90
4697;DHT22;2362;50.780;0.292;2022-10-28T03:50:35;15.80;99.90
4697;DHT22;2362;50.780;0.292;2022-10-28T03:53:01;15.80;99.90
4697;DHT22;2362;50.780;0.292;2022-10-28T03:55:27;15.80;99.90
4697;DHT22;2362;50.780;0.292;2022-10-28T03:57:53;15.70;99.90
4697;DHT22;2362;50.780;0.292;2022-10-28T04:00:19;15.80;99.90
4697;DHT22;2362;50.780;0.292;2022-10-28T04:02:52;15.80;99.90
4697;DHT22;2362;50.780;0.292;2022-10-28T04:05:18;15.80;99.90
4697;DHT22;2362;50.780;0.292;2022-10-28T04:07:44;15.80;99.90
4697;DHT22;2362;50.780;0.292;2022-10-28T04:10:11;15.80;99.90
4697;DHT22;2362;50.780;0.292;2022-10-28T04:12:38;15.80;99.90
4697;DHT22;2362;50.780;0.292;2022-10-28T04:15:04;15.70;99.90
4697;DHT22;2362;50.780;0.292;2022-10-28T04:17:33;15.80;99.90
4697;DHT22;2362;50.780;0.292;2022-10-28T04:20:01;15.70;99.90
4697;DHT22;2362;50.780;0.292;2022-10-28T04:22:27;15.90;99.90
4697;DHT22;2362;50.780;0.292;2022-10-28T04:24:53;15.90;99.90
4697;DHT22;2362;50.780;0.292;2022-10-28T04:27:19;15.90;99.90
4697;DHT22;2362;50.780;0.292;2022-10-28T04:29:45;16.00;99.90
4697;DHT22;2362;50.780;0.292;2022-10-28T04:32:11;16.00;99.90
4697;DHT22;2362;50.780;0.292;2022-10-28T04:34:37;16.00;99.90
4697;DHT22;2362;50.780;0.292;2022-10-28T04:37:03;16.00;99.90
4697;DHT22;2362;50.780;0.292;2022-10-28T04:39:28;16.00;99.90
4697;DHT22;2362;50.780;0.292;2022-10-28T04:41:54;16.00;99.90
4697;DHT22;2362;50.780;0.292;2022-10-28T04:44:20;15.90;99.90
4697;DHT22;2362;50.780;0.292;2022-10-28T04:46:46;15.90;99.90
4697;DHT22;2362;50.780;0.292;2022-10-28T04:49:11;15.90;99.90
4697;DHT22;2362;50.780;0.292;2022-10-28T04:51:39;15.90;99.90
4697;DHT22;2362;50.780;0.292;2022-10-28T04:54:05;15.80;99.90
4697;DHT22;2362;50.780;0.292;2022-10-28T04:56:31;15.80;99.90
4697;DHT22;2362;50.780;0.292;2022-10-28T04:58:58;15.80;99.90
4697;DHT22;2362;50.780;0.292;2022-10-28T05:01:24;15.90;99.90
4697;DHT22;2362;50.780;0.292;2022-10-28T05:03:49;15.90;99.90
4697;DHT22;2362;50.780;0.292;2022-10-28T05:06:15;15.90;99.90
4697;DHT22;2362;50.780;0.292;2022-10-28T05:08:41;16.00;99.90
4697;DHT22;2362;50.780;0.292;2022-10-28T05:11:07;16.00;99.90
4697;DHT22;2362;50.780;0.292;2022-10-28T05:13:33;16.00;99.90
4697;DHT22;2362;50.780;0.292;2022-10-28T05:15:58;16.00;99.90
4697;DHT22;2362;50.780;0.292;2022-10-28T05:18:49;16.10;99.90
4697;DHT22;2362;50.780;0.292;2022-10-28T05:21:40;16.10;99.90
4697;DHT22;2362;50.780;0.292;2022-10-28T05:24:06;16.10;99.90
4697;DHT22;2362;50.780;0.292;2022-10-28T05:26:32;16.00;99.90
4697;DHT22;2362;50.780;0.292;2022-10-28T05:28:58;16.00;99.90
4697;DHT22;2362;50.780;0.292;2022-10-28T05:31:23;16.10;99.90
4697;DHT22;2362;50.780;0.292;2022-10-28T05:33:49;16.00;99.90
4697;DHT22;2362;50.780;0.292;2022-10-28T05:36:15;16.10;99.90
4697;DHT22;2362;50.780;0.292;2022-10-28T05:38:41;16.10;99.90
4697;DHT22;2362;50.780;0.292;2022-10-28T05:41:09;16.10;99.90
4697;DHT22;2362;50.780;0.292;2022-10-28T05:43:35;16.10;99.90
4697;DHT22;2362;50.780;0.292;2022-10-28T05:46:01;16.10;99.90
4697;DHT22;2362;50.780;0.292;2022-10-28T05:48:28;16.10;99.90
4697;DHT22;2362;50.780;0.292;2022-10-28T05:50:54;16.00;99.90
4697;DHT22;2362;50.780;0.292;2022-10-28T05:53:19;16.00;99.90
4697;DHT22;2362;50.780;0.292;2022-10-28T05:55:45;16.00;99.90
4697;DHT22;2362;50.780;0.292;2022-10-28T05:58:11;16.00;99.90
4697;DHT22;2362;50.780;0.292;2022-10-28T06:00:37;16.00;99.90
4697;DHT22;2362;50.780;0.292;2022-10-28T06:03:05;16.00;99.90
4697;DHT22;2362;50.780;0.292;2022-10-28T06:05:43;16.00;99.90
4697;DHT22;2362;50.780;0.292;2022-10-28T06:08:10;16.00;99.90
4697;DHT22;2362;50.780;0.292;2022-10-28T06:10:36;16.00;99.90
4697;DHT22;2362;50.780;0.292;2022-10-28T06:13:02;16.00;99.90
4697;DHT22;2362;50.780;0.292;2022-10-28T06:15:28;16.10;99.90
4697;DHT22;2362;50.780;0.292;2022-10-28T06:17:54;16.10;99.90
4697;DHT22;2362;50.780;0.292;2022-10-28T06:20:20;16.10;99.90
4697;DHT22;2362;50.780;0.292;2022-10-28T06:22:55;16.10;99.90
4697;DHT22;2362;50.780;0.292;2022-10-28T06:25:23;16.10;99.90
4697;DHT22;2362;50.780;0.292;2022-10-28T06:28:07;16.20;99.90
4697;DHT22;2362;50.780;0.292;2022-10-28T06:30:34;16.20;99.90
4697;DHT22;2362;50.780;0.292;2022-10-28T06:33:00;16.20;99.90
4697;DHT22;2362;50.780;0.292;2022-10-28T06:35:26;16.30;99.90
4697;DHT22;2362;50.780;0.292;2022-10-28T06:37:55;16.30;99.90
4697;DHT22;2362;50.780;0.292;2022-10-28T06:40:25;16.40;99.90
4697;DHT22;2362;50.780;0.292;2022-10-28T06:45:23;16.50;99.90
4697;DHT22;2362;50.780;0.292;2022-10-28T06:47:53;16.50;99.90
4697;DHT22;2362;50.780;0.292;2022-10-28T06:50:19;16.60;99.90
4697;DHT22;2362;50.780;0.292;2022-10-28T06:52:45;16.60;99.90
4697;DHT22;2362;50.780;0.292;2022-10-28T06:55:11;16.60;99.90
4697;DHT22;2362;50.780;0.292;2022-10-28T06:57:37;16.70;99.90
4697;DHT22;2362;50.780;0.292;2022-10-28T07:00:03;16.80;99.90
4697;DHT22;2362;50.780;0.292;2022-10-28T07:02:29;16.80;99.90
4697;DHT22;2362;50.780;0.292;2022-10-28T07:04:55;16.80;99.90
4697;DHT22;2362;50.780;0.292;2022-10-28T07:07:21;16.90;99.90
4697;DHT22;2362;50.780;0.292;2022-10-28T07:09:46;16.90;99.90
4697;DHT22;2362;50.780;0.292;2022-10-28T07:12:12;17.00;99.90
4697;DHT22;2362;50.780;0.292;2022-10-28T07:14:38;17.00;99.90
4697;DHT22;2362;50.780;0.292;2022-10-28T07:17:04;17.00;99.90
4697;DHT22;2362;50.780;0.292;2022-10-28T07:19:30;17.00;99.90
4697;DHT22;2362;50.780;0.292;2022-10-28T07:21:56;17.00;99.90
4697;DHT22;2362;50.780;0.292;2022-10-28T07:24:22;17.00;99.90
4697;DHT22;2362;50.780;0.292;2022-10-28T07:26:47;17.10;99.90
4697;DHT22;2362;50.780;0.292;2022-10-28T07:29:16;17.20;99.90
4697;DHT22;2362;50.780;0.292;2022-10-28T07:31:42;17.20;99.90
4697;DHT22;2362;50.780;0.292;2022-10-28T07:34:08;17.20;99.90
4697;DHT22;2362;50.780;0.292;2022-10-28T07:36:34;17.20;99.90
4697;DHT22;2362;50.780;0.292;2022-10-28T07:38:59;17.20;99.90
4697;DHT22;2362;50.780;0.292;2022-10-28T07:41:25;17.30;99.90
4697;DHT22;2362;50.780;0.292;2022-10-28T07:43:51;17.30;99.90
4697;DHT22;2362;50.780;0.292;2022-10-28T07:46:18;17.40;99.90
4697;DHT22;2362;50.780;0.292;2022-10-28T07:48:44;17.40;99.90
4697;DHT22;2362;50.780;0.292;2022-10-28T07:51:12;17.50;99.90
4697;DHT22;2362;50.780;0.292;2022-10-28T07:53:39;17.50;99.90
4697;DHT22;2362;50.780;0.292;2022-10-28T07:56:07;17.60;99.90
4697;DHT22;2362;50.780;0.292;2022-10-28T07:58:35;17.60;99.90
4697;DHT22;2362;50.780;0.292;2022-10-28T08:01:06;17.60;99.90
4697;DHT22;2362;50.780;0.292;2022-10-28T08:03:33;17.60;99.90
4697;DHT22;2362;50.780;0.292;2022-10-28T08:06:03;17.70;99.90
4697;DHT22;2362;50.780;0.292;2022-10-28T08:08:29;17.80;99.90
4697;DHT22;2362;50.780;0.292;2022-10-28T08:10:55;17.90;99.90
4697;DHT22;2362;50.780;0.292;2022-10-28T08:13:22;18.00;99.90
4697;DHT22;2362;50.780;0.292;2022-10-28T08:15:52;18.00;99.90
4697;DHT22;2362;50.780;0.292;2022-10-28T08:18:18;18.10;99.90
4697;DHT22;2362;50.780;0.292;2022-10-28T08:20:44;18.10;99.90
4697;DHT22;2362;50.780;0.292;2022-10-28T08:23:10;18.10;99.90
4697;DHT22;2362;50.780;0.292;2022-10-28T08:25:36;18.00;99.90
4697;DHT22;2362;50.780;0.292;2022-10-28T08:28:02;18.00;99.90
4697;DHT22;2362;50.780;0.292;2022-10-28T08:30:28;18.00;99.90
4697;DHT22;2362;50.780;0.292;2022-10-28T08:32:54;18.00;99.90
4697;DHT22;2362;50.780;0.292;2022-10-28T08:35:20;18.00;99.90
4697;DHT22;2362;50.780;0.292;2022-10-28T08:37:52;18.10;99.90
4697;DHT22;2362;50.780;0.292;2022-10-28T08:40:22;18.10;99.90
4697;DHT22;2362;50.780;0.292;2022-10-28T08:42:56;18.10;99.90
4697;DHT22;2362;50.780;0.292;2022-10-28T08:45:52;18.10;99.90
4697;DHT22;2362;50.780;0.292;2022-10-28T08:48:34;18.10;99.90
4697;DHT22;2362;50.780;0.292;2022-10-28T08:51:21;18.10;99.90
4697;DHT22;2362;50.780;0.292;2022-10-28T08:53:58;18.20;99.90
4697;DHT22;2362;50.780;0.292;2022-10-28T08:56:32;18.20;99.90
4697;DHT22;2362;50.780;0.292;2022-10-28T08:59:01;18.20;99.90
4697;DHT22;2362;50.780;0.292;2022-10-28T09:04:42;18.20;99.90
4697;DHT22;2362;50.780;0.292;2022-10-28T09:07:16;18.30;99.90
4697;DHT22;2362;50.780;0.292;2022-10-28T09:09:48;18.20;99.90
4697;DHT22;2362;50.780;0.292;2022-10-28T09:12:23;18.20;99.90
4697;DHT22;2362;50.780;0.292;2022-10-28T09:17:52;18.10;99.90
4697;DHT22;2362;50.780;0.292;2022-10-28T09:22:57;18.00;99.90
4697;DHT22;2362;50.780;0.292;2022-10-28T09:35:50;17.80;99.90
4697;DHT22;2362;50.780;0.292;2022-10-28T09:38:28;17.90;99.90
4697;DHT22;2362;50.780;0.292;2022-10-28T09:41:05;17.90;99.90
4697;DHT22;2362;50.780;0.292;2022-10-28T09:43:41;17.90;99.90
4697;DHT22;2362;50.780;0.292;2022-10-28T09:46:14;17.90;99.90
4697;DHT22;2362;50.780;0.292;2022-10-28T09:48:45;17.90;99.90
4697;DHT22;2362;50.780;0.292;2022-10-28T09:53:53;18.10;99.90
4697;DHT22;2362;50.780;0.292;2022-10-28T09:56:21;18.00;99.90
4697;DHT22;2362;50.780;0.292;2022-10-28T09:58:47;18.00;99.90
4697;DHT22;2362;50.780;0.292;2022-10-28T10:01:14;18.00;99.90
4697;DHT22;2362;50.780;0.292;2022-10-28T10:03:41;18.00;99.90
4697;DHT22;2362;50.780;0.292;2022-10-28T10:06:26;18.00;99.90
4697;DHT22;2362;50.780;0.292;2022-10-28T10:08:55;18.00;99.90
4697;DHT22;2362;50.780;0.292;2022-10-28T10:11:33;18.00;99.90
4697;DHT22;2362;50.780;0.292;2022-10-28T10:14:09;18.10;99.90
4697;DHT22;2362;50.780;0.292;2022-10-28T10:17:11;18.10;99.90
4697;DHT22;2362;50.780;0.292;2022-10-28T10:22:36;18.10;99.90
4697;DHT22;2362;50.780;0.292;2022-10-28T10:28:00;17.90;99.90
4697;DHT22;2362;50.780;0.292;2022-10-28T10:30:29;17.90;99.90
4697;DHT22;2362;50.780;0.292;2022-10-28T10:32:56;17.90;99.90
4697;DHT22;2362;50.780;0.292;2022-10-28T10:35:52;17.90;99.90
4697;DHT22;2362;50.780;0.292;2022-10-28T10:38:18;17.80;99.90
4697;DHT22;2362;50.780;0.292;2022-10-28T10:40:49;17.80;99.90
4697;DHT22;2362;50.780;0.292;2022-10-28T10:43:28;17.80;99.90
4697;DHT22;2362;50.780;0.292;2022-10-28T10:48:23;17.80;99.90
4697;DHT22;2362;50.780;0.292;2022-10-28T10:51:21;17.80;99.90
4697;DHT22;2362;50.780;0.292;2022-10-28T10:54:14;17.80;99.90
4697;DHT22;2362;50.780;0.292;2022-10-28T10:57:25;17.80;99.90
4697;DHT22;2362;50.780;0.292;2022-10-28T10:59:53;17.90;99.90
4697;DHT22;2362;50.780;0.292;2022-10-28T11:02:34;17.90;99.90
4697;DHT22;2362;50.780;0.292;2022-10-28T11:05:04;17.80;99.90
4697;DHT22;2362;50.780;0.292;2022-10-28T11:07:31;17.80;99.90
4697;DHT22;2362;50.780;0.292;2022-10-28T11:09:58;17.80;99.90
4697;DHT22;2362;50.780;0.292;2022-10-28T11:14:57;17.90;99.90
4697;DHT22;2362;50.780;0.292;2022-10-28T11:17:26;17.90;99.90
4697;DHT22;2362;50.780;0.292;2022-10-28T11:19:56;17.90;99.90
4697;DHT22;2362;50.780;0.292;2022-10-28T11:27:49;17.90;99.90
4697;DHT22;2362;50.780;0.292;2022-10-28T11:30:20;17.90;99.90
4697;DHT22;2362;50.780;0.292;2022-10-28T11:32:57;17.80;99.90
4697;DHT22;2362;50.780;0.292;2022-10-28T11:35:53;17.80;99.90
4697;DHT22;2362;50.780;0.292;2022-10-28T11:39:36;17.70;99.90
4697;DHT22;2362;50.780;0.292;2022-10-28T11:44:01;17.90;99.90
4697;DHT22;2362;50.780;0.292;2022-10-28T11:58:27;18.20;99.90
4697;DHT22;2362;50.780;0.292;2022-10-28T12:01:08;18.20;99.90
4697;DHT22;2362;50.780;0.292;2022-10-28T12:06:46;18.00;99.90
4697;DHT22;2362;50.780;0.292;2022-10-28T12:09:20;18.00;99.90
4697;DHT22;2362;50.780;0.292;2022-10-28T12:12:03;18.00;99.90
4697;DHT22;2362;50.780;0.292;2022-10-28T12:15:01;17.90;99.90
4697;DHT22;2362;50.780;0.292;2022-10-28T12:17:39;17.90;99.90
4697;DHT22;2362;50.780;0.292;2022-10-28T12:20:34;17.80;99.90
4697;DHT22;2362;50.780;0.292;2022-10-28T12:23:12;17.80;99.90
4697;DHT22;2362;50.780;0.292;2022-10-28T12:25:41;17.80;99.90
4697;DHT22;2362;50.780;0.292;2022-10-28T12:28:32;17.80;99.90
4697;DHT22;2362;50.780;0.292;2022-10-28T12:31:01;17.90;99.90
4697;DHT22;2362;50.780;0.292;2022-10-28T12:33:39;17.90;99.90
4697;DHT22;2362;50.780;0.292;2022-10-28T12:41:15;17.80;99.90
4697;DHT22;2362;50.780;0.292;2022-10-28T12:43:47;17.80;99.90
4697;DHT22;2362;50.780;0.292;2022-10-28T12:49:04;17.70;99.90
4697;DHT22;2362;50.780;0.292;2022-10-28T12:51:36;17.60;99.90
4697;DHT22;2362;50.780;0.292;2022-10-28T12:57:11;17.40;99.90
4697;DHT22;2362;50.780;0.292;2022-10-28T12:59:51;17.40;99.90
4697;DHT22;2362;50.780;0.292;2022-10-28T13:02:24;17.50;99.90
4697;DHT22;2362;50.780;0.292;2022-10-28T13:04:51;17.60;99.90
4697;DHT22;2362;50.780;0.292;2022-10-28T13:10:33;17.70;99.90
4697;DHT22;2362;50.780;0.292;2022-10-28T13:26:42;17.60;99.90
4697;DHT22;2362;50.780;0.292;2022-10-28T13:29:24;17.60;99.90
4697;DHT22;2362;50.780;0.292;2022-10-28T13:31:53;17.50;99.90
4697;DHT22;2362;50.780;0.292;2022-10-28T13:34:21;17.50;99.90
4697;DHT22;2362;50.780;0.292;2022-10-28T13:37:01;17.50;99.90
4697;DHT22;2362;50.780;0.292;2022-10-28T13:44:52;17.40;99.90
4697;DHT22;2362;50.780;0.292;2022-10-28T13:47:25;17.30;99.90
4697;DHT22;2362;50.780;0.292;2022-10-28T13:52:34;17.40;99.90
4697;DHT22;2362;50.780;0.292;2022-10-28T13:55:26;17.40;99.90
4697;DHT22;2362;50.780;0.292;2022-10-28T13:58:13;17.40;99.90
4697;DHT22;2362;50.780;0.292;2022-10-28T14:00:43;17.30;99.90
4697;DHT22;2362;50.780;0.292;2022-10-28T14:03:21;17.20;99.90
4697;DHT22;2362;50.780;0.292;2022-10-28T14:05:51;17.20;99.90
4697;DHT22;2362;50.780;0.292;2022-10-28T14:08:31;17.20;99.90
4697;DHT22;2362;50.780;0.292;2022-10-28T14:11:10;17.20;99.90
4697;DHT22;2362;50.780;0.292;2022-10-28T14:13:47;17.20;99.90
4697;DHT22;2362;50.780;0.292;2022-10-28T14:16:16;17.20;99.90
4697;DHT22;2362;50.780;0.292;2022-10-28T14:21:51;17.20;99.90
4697;DHT22;2362;50.780;0.292;2022-10-28T14:24:34;17.20;99.90
4697;DHT22;2362;50.780;0.292;2022-10-28T14:29:42;17.10;99.90
4697;DHT22;2362;50.780;0.292;2022-10-28T14:33:15;17.10;99.90
4697;DHT22;2362;50.780;0.292;2022-10-28T14:40:44;16.90;99.90
4697;DHT22;2362;50.780;0.292;2022-10-28T14:43:41;16.90;99.90
4697;DHT22;2362;50.780;0.292;2022-10-28T14:46:27;16.80;99.90
4697;DHT22;2362;50.780;0.292;2022-10-28T14:48:55;16.80;99.90
4697;DHT22;2362;50.780;0.292;2022-10-28T14:51:27;16.80;99.90
4697;DHT22;2362;50.780;0.292;2022-10-28T14:53:57;16.80;99.90
4697;DHT22;2362;50.780;0.292;2022-10-28T14:56:29;16.70;99.90
4697;DHT22;2362;50.780;0.292;2022-10-28T15:04:19;16.80;99.90
4697;DHT22;2362;50.780;0.292;2022-10-28T15:06:48;16.80;99.90
4697;DHT22;2362;50.780;0.292;2022-10-28T15:09:23;16.70;99.90
4697;DHT22;2362;50.780;0.292;2022-10-28T15:12:14;16.60;99.90
4697;DHT22;2362;50.780;0.292;2022-10-28T15:14:52;16.60;99.90
4697;DHT22;2362;50.780;0.292;2022-10-28T15:19:50;16.60;99.90
4697;DHT22;2362;50.780;0.292;2022-10-28T15:22:26;16.50;99.90
4697;DHT22;2362;50.780;0.292;2022-10-28T15:25:10;16.50;99.90
4697;DHT22;2362;50.780;0.292;2022-10-28T15:27:38;16.40;99.90
4697;DHT22;2362;50.780;0.292;2022-10-28T15:30:20;16.30;99.90
4697;DHT22;2362;50.780;0.292;2022-10-28T15:32:49;16.30;99.90
4697;DHT22;2362;50.780;0.292;2022-10-28T15:40:48;16.10;99.90
4697;DHT22;2362;50.780;0.292;2022-10-28T15:43:19;16.10;99.90
4697;DHT22;2362;50.780;0.292;2022-10-28T15:45:48;16.10;99.90
4697;DHT22;2362;50.780;0.292;2022-10-28T15:48:23;16.00;99.90
4697;DHT22;2362;50.780;0.292;2022-10-28T15:51:17;16.00;99.90
4697;DHT22;2362;50.780;0.292;2022-10-28T15:53:50;15.90;99.90
4697;DHT22;2362;50.780;0.292;2022-10-28T15:56:21;15.90;99.90
4697;DHT22;2362;50.780;0.292;2022-10-28T15:59:16;15.90;99.90
4697;DHT22;2362;50.780;0.292;2022-10-28T16:01:44;15.80;99.90
4697;DHT22;2362;50.780;0.292;2022-10-28T16:06:58;15.70;99.90
4697;DHT22;2362;50.780;0.292;2022-10-28T16:09:33;15.60;99.90
4697;DHT22;2362;50.780;0.292;2022-10-28T16:12:02;15.60;99.90
4697;DHT22;2362;50.780;0.292;2022-10-28T16:17:24;15.40;99.90
4697;DHT22;2362;50.780;0.292;2022-10-28T16:19:54;15.40;99.90
4697;DHT22;2362;50.780;0.292;2022-10-28T16:22:25;15.40;99.90
4697;DHT22;2362;50.780;0.292;2022-10-28T16:24:52;15.30;99.90
4697;DHT22;2362;50.780;0.292;2022-10-28T16:27:23;15.30;99.90
4697;DHT22;2362;50.780;0.292;2022-10-28T16:29:49;15.20;99.90
4697;DHT22;2362;50.780;0.292;2022-10-28T16:32:18;15.20;99.90
4697;DHT22;2362;50.780;0.292;2022-10-28T16:34:45;15.10;99.90
4697;DHT22;2362;50.780;0.292;2022-10-28T16:37:28;15.10;99.90
4697;DHT22;2362;50.780;0.292;2022-10-28T16:39:54;15.10;99.90
4697;DHT22;2362;50.780;0.292;2022-10-28T16:42:21;15.10;99.90
4697;DHT22;2362;50.780;0.292;2022-10-28T16:44:47;15.00;99.90
4697;DHT22;2362;50.780;0.292;2022-10-28T16:47:15;14.90;99.90
4697;DHT22;2362;50.780;0.292;2022-10-28T16:49:42;14.90;99.90
4697;DHT22;2362;50.780;0.292;2022-10-28T16:52:17;14.80;99.90
4697;DHT22;2362;50.780;0.292;2022-10-28T16:54:48;14.80;99.90
4697;DHT22;2362;50.780;0.292;2022-10-28T16:57:15;14.70;99.90
4697;DHT22;2362;50.780;0.292;2022-10-28T16:59:41;14.60;99.90
4697;DHT22;2362;50.780;0.292;2022-10-28T17:02:34;14.50;99.90
4697;DHT22;2362;50.780;0.292;2022-10-28T17:05:00;14.40;99.90
4697;DHT22;2362;50.780;0.292;2022-10-28T17:07:29;14.40;99.90
4697;DHT22;2362;50.780;0.292;2022-10-28T17:09:56;14.30;99.90
4697;DHT22;2362;50.780;0.292;2022-10-28T17:12:24;14.30;99.90
4697;DHT22;2362;50.780;0.292;2022-10-28T17:14:50;14.30;99.90
4697;DHT22;2362;50.780;0.292;2022-10-28T17:17:17;14.30;99.90
4697;DHT22;2362;50.780;0.292;2022-10-28T17:19:43;14.20;99.90
4697;DHT22;2362;50.780;0.292;2022-10-28T17:22:10;14.20;99.90
4697;DHT22;2362;50.780;0.292;2022-10-28T17:24:36;14.20;99.90
4697;DHT22;2362;50.780;0.292;2022-10-28T17:27:03;14.20;99.90
4697;DHT22;2362;50.780;0.292;2022-10-28T17:29:29;14.20;99.90
4697;DHT22;2362;50.780;0.292;2022-10-28T17:31:55;14.20;99.90
4697;DHT22;2362;50.780;0.292;2022-10-28T17:34:20;14.30;99.90
4697;DHT22;2362;50.780;0.292;2022-10-28T17:36:46;14.30;99.90
4697;DHT22;2362;50.780;0.292;2022-10-28T17:39:12;14.40;99.90
4697;DHT22;2362;50.780;0.292;2022-10-28T17:41:38;14.40;99.90
4697;DHT22;2362;50.780;0.292;2022-10-28T17:44:04;14.50;99.90
4697;DHT22;2362;50.780;0.292;2022-10-28T17:46:54;14.60;99.90
4697;DHT22;2362;50.780;0.292;2022-10-28T17:49:22;14.70;99.90
4697;DHT22;2362;50.780;0.292;2022-10-28T17:51:48;14.70;99.90
4697;DHT22;2362;50.780;0.292;2022-10-28T17:54:15;14.70;99.90
4697;DHT22;2362;50.780;0.292;2022-10-28T17:56:41;14.80;99.90
4697;DHT22;2362;50.780;0.292;2022-10-28T17:59:07;14.80;99.90
4697;DHT22;2362;50.780;0.292;2022-10-28T18:01:33;14.80;99.90
4697;DHT22;2362;50.780;0.292;2022-10-28T18:04:00;14.80;99.90
4697;DHT22;2362;50.780;0.292;2022-10-28T18:06:27;14.80;99.90
4697;DHT22;2362;50.780;0.292;2022-10-28T18:08:53;14.70;99.90
4697;DHT22;2362;50.780;0.292;2022-10-28T18:11:20;14.70;99.90
4697;DHT22;2362;50.780;0.292;2022-10-28T18:13:47;14.60;99.90
4697;DHT22;2362;50.780;0.292;2022-10-28T18:16:20;14.50;99.90
4697;DHT22;2362;50.780;0.292;2022-10-28T18:18:46;14.40;99.90
4697;DHT22;2362;50.780;0.292;2022-10-28T18:21:12;14.30;99.90
4697;DHT22;2362;50.780;0.292;2022-10-28T18:23:39;14.20;99.90
4697;DHT22;2362;50.780;0.292;2022-10-28T18:26:14;14.00;99.90
4697;DHT22;2362;50.780;0.292;2022-10-28T18:28:41;14.00;99.90
4697;DHT22;2362;50.780;0.292;2022-10-28T18:31:18;13.90;99.90
4697;DHT22;2362;50.780;0.292;2022-10-28T18:33:44;13.90;99.90
4697;DHT22;2362;50.780;0.292;2022-10-28T18:36:13;13.90;99.90
4697;DHT22;2362;50.780;0.292;2022-10-28T18:38:39;13.90;99.90
4697;DHT22;2362;50.780;0.292;2022-10-28T18:41:09;13.80;99.90
4697;DHT22;2362;50.780;0.292;2022-10-28T18:43:35;13.80;99.90
4697;DHT22;2362;50.780;0.292;2022-10-28T18:46:01;13.80;99.90
4697;DHT22;2362;50.780;0.292;2022-10-28T18:48:28;13.60;99.90
4697;DHT22;2362;50.780;0.292;2022-10-28T18:51:01;13.60;99.90
4697;DHT22;2362;50.780;0.292;2022-10-28T18:53:38;13.60;99.90
4697;DHT22;2362;50.780;0.292;2022-10-28T18:56:05;13.50;99.90
4697;DHT22;2362;50.780;0.292;2022-10-28T18:58:32;13.50;99.90
4697;DHT22;2362;50.780;0.292;2022-10-28T19:01:07;13.50;99.90
4697;DHT22;2362;50.780;0.292;2022-10-28T19:03:34;13.40;99.90
4697;DHT22;2362;50.780;0.292;2022-10-28T19:06:05;13.50;99.90
4697;DHT22;2362;50.780;0.292;2022-10-28T19:08:31;13.50;99.90
4697;DHT22;2362;50.780;0.292;2022-10-28T19:10:58;13.50;99.90
4697;DHT22;2362;50.780;0.292;2022-10-28T19:13:24;13.50;99.90
4697;DHT22;2362;50.780;0.292;2022-10-28T19:15:50;13.50;99.90
4697;DHT22;2362;50.780;0.292;2022-10-28T19:18:16;13.40;99.90
4697;DHT22;2362;50.780;0.292;2022-10-28T19:20:42;13.30;99.90
4697;DHT22;2362;50.780;0.292;2022-10-28T19:23:08;13.20;99.90